Halfway's Hourly Summary for Saturday, May 12, 2018
Hour Temp
(f)
RH
(%)
Solar Rad.
(MJ/m2)
Rainfall
(in)
Wind
(mph)
5/12/2018 12:00 AM 79 33 0 0 18.54
5/12/2018 1:00 AM 76 40 0 0 17.84
5/12/2018 2:00 AM 73 44 0 0 16.42
5/12/2018 3:00 AM 71 47 0 0 15.7
5/12/2018 4:00 AM 69 53 0 0 11.56
5/12/2018 5:00 AM 67 59 0 0 10.72
5/12/2018 6:00 AM 64 63 0 0 8.73
5/12/2018 7:00 AM 62 68 0.01 0 8.46
5/12/2018 8:00 AM 63 64 0.34 0 9.33
5/12/2018 9:00 AM 67 54 1.03 0 11.68
5/12/2018 10:00 AM 72 45 1.8 0 15.28
5/12/2018 11:00 AM 79 30 2.56 0 13.88
5/12/2018 12:00 PM 85 18 3.15 0 11.61
5/12/2018 1:00 PM 90 12 3.58 0 7.62
5/12/2018 2:00 PM 93 9 3.81 0 8.75
5/12/2018 3:00 PM 95 8 3.7 0 9.64
5/12/2018 4:00 PM 96 8 3.2 0 13.02
5/12/2018 5:00 PM 96 6 1.81 0 14.69
5/12/2018 6:00 PM 94 6 1.52 0 15.36
5/12/2018 7:00 PM 95 6 1.56 0 14.31
5/12/2018 8:00 PM 92 7 0.71 0 14.61
5/12/2018 9:00 PM 87 9 0.08 0 10.47
5/12/2018 10:00 PM 81 15 0 0 7.9
5/12/2018 11:00 PM 80 19 0 0 10.54
Data Summary 80 30 28.86 0.00 12.36